Pagina principale
METAR-TAF:

METAR-TAF

Aeroporti :

Aeroporto di Comiso

Comiso, Italia

latitudine: 36-59-30N, longitudine: 14-36-25E, altezza: 190 m

Osservazione

Il bollettino è stato emesso 34 minuti fa, alle 09:50 UTC
Vento 3 kt da ovest, variando fra sud/sud-ovest e nord-ovest
Temperature 16°C
Umidità 59%
Pressione 1014 hPa
Visibilità 10 km o più

METAR: LICB 090950Z AUTO 26003KT 200V310 9999 NCD 16/08 Q1014

Ora: 11:24 (10:24 UTC)

Previsione

Il bollettino è stato emesso 2 ore e 24 minuti fa, alle 08:00 UTC
Previsione valida dal 09 alle 09 UTC al 09 alle 18 UTC
Vento 5 kt da direzioni variabili
Visibilità 10 km o più
Nubi sparse ad un'altezza di 3000 ft
Evoluzione graduale
dal 09 alle 09 UTC al 09 alle 11 UTC
Vento 10 kt da ovest/sud-ovest

TAF: LICB 090800Z 0909/0918 VRB05KT 9999 SCT030 BECMG 0909/0911 24010KT

Osservazioni e previsioni meteorologiche di più di 4000 aeroporti (messaggi METAR e TAF).

Le stazioni disponibili sono rappresentate dai dischi gialli e rossi sulla carta.

Puntare il mouse per vedere il nome della stazione.

Clicca sopra per visualizzare le osservazioni e previsioni meteorologiche.

Per cambiare la mappa : fare clic sui pulsanti verdi con una croce nera per ingrandire, il pulsante verde con un trattino per diminuire, o sulla freccia verde per le mappe adiacenti.


METAR-TAF: